| time (UTC) | temp F | wind direction | speed knots | gust knots | rain 1hr in | rain 24hr in | rain mn in | humidity % | barometer mb |
| 20260831232203 | 72 | 360 | 0.0 | 0.0 | 0.00 | 0.57 | 0.57 | 95 | 1015.2 |
| 20260831231202 | 72 | 360 | 0.0 | 0.0 | 0.00 | 0.58 | 0.57 | 95 | 1015.0 |
| 20260831230224 | 72 | 360 | 0.0 | 0.9 | 0.00 | 0.58 | 0.57 | 95 | 1015.2 |
| 20260831225203 | 73 | 359 | 0.0 | 0.9 | 0.00 | 0.58 | 0.57 | 95 | 1015.3 |
| 20260831224202 | 73 | 359 | 0.0 | 1.7 | 0.00 | 0.59 | 0.57 | 95 | 1015.4 |
| 20260831223203 | 73 | 359 | 1.7 | 3.5 | 0.00 | 0.59 | 0.57 | 95 | 1015.5 |
| 20260831222202 | 73 | 359 | 2.6 | 5.2 | 0.00 | 0.59 | 0.57 | 96 | 1015.5 |
| 20260831221203 | 73 | 359 | 0.0 | 3.5 | 0.00 | 0.60 | 0.57 | 96 | 1015.5 |
| 20260831220202 | 73 | 359 | 0.0 | 1.7 | 0.00 | 0.60 | 0.57 | 96 | 1015.7 |
| 20260831215203 | 73 | 360 | 0.0 | 5.2 | 0.00 | 0.60 | 0.57 | 95 | 1015.6 |
| 20260831214203 | 73 | 360 | 0.0 | 4.3 | 0.00 | 0.60 | 0.57 | 96 | 1015.7 |
| 20260831213248 | 73 | 359 | 1.7 | 3.5 | 0.00 | 0.60 | 0.57 | 96 | 1015.7 |
| 20260831212202 | 73 | 360 | 0.0 | 0.0 | 0.00 | 0.60 | 0.57 | 96 | 1015.6 |
| 20260831211202 | 72 | 360 | 0.0 | 0.0 | 0.00 | 0.60 | 0.57 | 95 | 1015.6 |
| 20260831210244 | 72 | 360 | 0.0 | 0.0 | 0.00 | 0.60 | 0.57 | 95 | 1015.4 |
| 20260831205203 | 72 | 360 | 0.0 | 0.0 | 0.00 | 0.60 | 0.57 | 96 | 1015.3 |
| 20260831204202 | 72 | 360 | 0.0 | 0.0 | 0.00 | 0.60 | 0.57 | 96 | 1015.4 |
| 20260831203204 | 72 | 360 | 0.0 | 0.0 | 0.00 | 0.60 | 0.57 | 96 | 1015.4 |
| 20260831202202 | 71 | 360 | 0.0 | 0.9 | 0.00 | 0.60 | 0.57 | 95 | 1015.5 |
| 20260831201203 | 71 | 360 | 0.0 | 0.0 | 0.00 | 0.60 | 0.57 | 95 | 1015.5 |
| 20260831200202 | 71 | 360 | 0.0 | 1.7 | 0.00 | 0.60 | 0.57 | 96 | 1015.5 |
| 20260831195203 | 71 | 360 | 0.0 | 0.0 | 0.01 | 0.60 | 0.57 | 96 | 1015.6 |
| 20260831194223 | 71 | 360 | 0.0 | 0.0 | 0.00 | 0.59 | 0.56 | 96 | 1015.8 |
| 20260831193202 | 71 | 360 | 0.0 | 0.0 | 0.00 | 0.59 | 0.56 | 95 | 1015.8 |
| 20260831192202 | 71 | 359 | 0.0 | 0.9 | 0.00 | 0.59 | 0.56 | 95 | 1016.0 |
| 20260831191202 | 71 | 359 | 0.0 | 0.9 | 0.00 | 0.59 | 0.56 | 95 | 1016.0 |
| 20260831190202 | 70 | 360 | 0.0 | 1.7 | 0.00 | 0.60 | 0.56 | 96 | 1016.1 |
| 20260831185202 | 70 | 360 | 0.0 | 0.9 | 0.02 | 0.60 | 0.56 | 95 | 1016.2 |
| 20260831184203 | 70 | 360 | 0.0 | 0.0 | 0.02 | 0.60 | 0.56 | 95 | 1016.2 |
| 20260831183202 | 70 | 359 | 0.0 | 2.6 | 0.00 | 0.58 | 0.54 | 95 | 1016.3 |
| 20260831182202 | 70 | 360 | 0.0 | 0.9 | 0.00 | 0.58 | 0.54 | 95 | 1016.4 |
| 20260831181202 | 70 | 360 | 0.0 | 0.0 | 0.00 | 0.58 | 0.54 | 95 | 1016.6 |
| 20260831180203 | 70 | 360 | 0.0 | 0.0 | 0.00 | 0.58 | 0.54 | 95 | 1016.5 |
| 20260831175203 | 70 | 360 | 0.0 | 1.7 | 0.02 | 0.58 | 0.54 | 95 | 1016.6 |
| 20260831174202 | 70 | 359 | 0.9 | 2.6 | 0.01 | 0.57 | 0.53 | 95 | 1016.8 |
| 20260831173224 | 70 | 360 | 0.0 | 0.0 | 0.01 | 0.57 | 0.53 | 95 | 1016.6 |
| 20260831172205 | 70 | 360 | 0.0 | 2.6 | 0.01 | 0.57 | 0.53 | 95 | 1016.7 |
| 20260831171204 | 70 | 359 | 0.9 | 1.7 | 0.00 | 0.56 | 0.52 | 95 | 1016.7 |
| 20260831170202 | 70 | 359 | 0.0 | 1.7 | 0.00 | 0.56 | 0.52 | 96 | 1016.8 |
| 20260831165203 | 70 | 359 | 0.0 | 1.7 | 0.00 | 0.56 | 0.52 | 96 | 1017.0 |
| 20260831164223 | 70 | 359 | 0.0 | 1.7 | 0.00 | 0.56 | 0.52 | 96 | 1017.0 |
| 20260831163203 | 69 | 360 | 0.0 | 1.7 | 0.00 | 0.56 | 0.52 | 96 | 1017.0 |
| 20260831162202 | 69 | 360 | 0.0 | 2.6 | 0.00 | 0.56 | 0.52 | 96 | 1017.0 |
| 20260831161202 | 68 | 360 | 0.0 | 0.0 | 0.00 | 0.56 | 0.52 | 95 | 1017.1 |
| 20260831160202 | 68 | 360 | 0.0 | 0.0 | 0.00 | 0.56 | 0.52 | 95 | 1017.3 |
| 20260831155203 | 68 | 360 | 0.0 | 0.0 | 0.00 | 0.56 | 0.52 | 96 | 1017.4 |
| 20260831154224 | 67 | 360 | 0.0 | 0.0 | 0.00 | 0.56 | 0.52 | 95 | 1017.5 |
| 20260831153245 | 67 | 360 | 0.0 | 0.0 | 0.00 | 0.56 | 0.52 | 95 | 1017.5 |
| 20260831152202 | 67 | 360 | 0.0 | 0.0 | 0.00 | 0.57 | 0.52 | 95 | 1017.6 |
| 20260831151203 | 67 | 360 | 0.0 | 0.0 | 0.00 | 0.57 | 0.52 | 95 | 1017.5 |
| 20260831150203 | 67 | 360 | 0.0 | 0.0 | 0.00 | 0.57 | 0.52 | 95 | 1017.4 |
| 20260831145202 | 67 | 360 | 0.0 | 1.7 | 0.02 | 0.57 | 0.52 | 95 | 1017.3 |
| 20260831144202 | 67 | 359 | 0.0 | 1.7 | 0.02 | 0.57 | 0.52 | 95 | 1017.3 |
| 20260831143203 | 67 | 360 | 0.0 | 0.9 | 0.02 | 0.57 | 0.52 | 95 | 1017.3 |
| 20260831142202 | 66 | 360 | 0.0 | 1.7 | 0.01 | 0.56 | 0.51 | 95 | 1017.4 |
| 20260831141204 | 67 | 359 | 0.0 | 4.3 | 0.01 | 0.56 | 0.51 | 95 | 1017.4 |
| 20260831140202 | 66 | 360 | 0.0 | 0.0 | 0.00 | 0.55 | 0.50 | 95 | 1017.5 |
| 20260831135203 | 66 | 360 | 0.0 | 0.0 | 0.13 | 0.54 | 0.49 | 95 | 1017.4 |
| 20260831134202 | 66 | 360 | 0.0 | 0.0 | 0.08 | 0.49 | 0.44 | 95 | 1017.6 |
| 20260831133225 | 66 | 360 | 0.0 | 4.3 | 0.07 | 0.48 | 0.43 | 95 | 1017.6 |
| 20260831132202 | 66 | 359 | 0.9 | 3.5 | 0.05 | 0.46 | 0.41 | 95 | 1017.7 |
| 20260831131204 | 66 | 360 | 0.0 | 1.7 | 0.03 | 0.44 | 0.39 | 95 | 1017.6 |
| 20260831130202 | 66 | 359 | 0.0 | 0.9 | 0.00 | 0.41 | 0.36 | 95 | 1017.7 |
| 20260831125202 | 66 | 359 | 0.0 | 3.5 | 0.19 | 0.40 | 0.35 | 95 | 1017.5 |
| 20260831124202 | 66 | 1 | 0.9 | 1.7 | 0.18 | 0.39 | 0.34 | 95 | 1017.5 |
| 20260831123202 | 66 | 359 | 0.9 | 1.7 | 0.13 | 0.34 | 0.29 | 95 | 1017.5 |
| 20260831122202 | 66 | 359 | 0.0 | 0.9 | 0.09 | 0.30 | 0.25 | 95 | 1017.3 |
| 20260831121204 | 66 | 360 | 0.0 | 0.0 | 0.03 | 0.24 | 0.19 | 95 | 1017.5 |
| 20260831120202 | 66 | 360 | 0.0 | 0.9 | 0.00 | 0.21 | 0.16 | 95 | 1017.3 |
| 20260831115202 | 66 | 360 | 0.0 | 0.0 | 0.01 | 0.21 | 0.16 | 95 | 1017.3 |
| 20260831114223 | 66 | 360 | 0.0 | 0.0 | 0.01 | 0.21 | 0.16 | 95 | 1017.4 |
| 20260831113203 | 66 | 360 | 0.0 | 0.0 | 0.01 | 0.21 | 0.16 | 95 | 1017.4 |
| 20260831112203 | 66 | 360 | 0.0 | 0.0 | 0.00 | 0.20 | 0.15 | 95 | 1017.4 |
| 20260831111203 | 66 | 360 | 0.0 | 0.0 | 0.00 | 0.20 | 0.15 | 95 | 1017.5 |
| 20260831110202 | 66 | 360 | 0.0 | 0.0 | 0.00 | 0.20 | 0.15 | 95 | 1017.6 |
| 20260831105202 | 66 | 360 | 0.0 | 0.0 | 0.03 | 0.19 | 0.14 | 95 | 1017.6 |
| 20260831104224 | 66 | 360 | 0.0 | 0.0 | 0.02 | 0.18 | 0.13 | 95 | 1017.7 |
| 20260831103203 | 66 | 360 | 0.0 | 0.0 | 0.02 | 0.18 | 0.13 | 95 | 1017.7 |
| 20260831102205 | 66 | 360 | 0.0 | 0.0 | 0.01 | 0.17 | 0.12 | 95 | 1017.7 |
| 20260831101225 | 66 | 360 | 0.0 | 0.0 | 0.01 | 0.17 | 0.12 | 95 | 1017.8 |
| 20260831100202 | 66 | 360 | 0.0 | 0.9 | 0.00 | 0.16 | 0.11 | 95 | 1017.8 |
| 20260831095203 | 66 | 360 | 0.0 | 0.0 | 0.00 | 0.16 | 0.11 | 95 | 1017.7 |
| 20260831094202 | 66 | 360 | 0.0 | 0.0 | 0.00 | 0.16 | 0.11 | 95 | 1017.6 |
| 20260831093202 | 66 | 360 | 0.0 | 0.0 | 0.00 | 0.16 | 0.11 | 95 | 1017.5 |
| 20260831092223 | 66 | 360 | 0.0 | 0.0 | 0.00 | 0.16 | 0.11 | 95 | 1017.4 |
| 20260831091202 | 66 | 360 | 0.0 | 0.0 | 0.00 | 0.16 | 0.11 | 95 | 1017.5 |
| 20260831090202 | 67 | 360 | 0.0 | 0.0 | 0.00 | 0.16 | 0.11 | 95 | 1017.7 |
| 20260831085202 | 67 | 360 | 0.0 | 0.0 | 0.00 | 0.16 | 0.11 | 95 | 1017.8 |
| 20260831084203 | 67 | 360 | 0.0 | 0.0 | 0.00 | 0.16 | 0.11 | 95 | 1017.9 |
| 20260831083202 | 67 | 360 | 0.0 | 0.0 | 0.00 | 0.16 | 0.11 | 95 | 1017.8 |
| 20260831082203 | 67 | 360 | 0.0 | 0.0 | 0.00 | 0.16 | 0.11 | 95 | 1018.2 |
| 20260831081203 | 67 | 360 | 0.0 | 0.0 | 0.00 | 0.16 | 0.11 | 95 | 1018.2 |
| 20260831080204 | 67 | 360 | 0.0 | 0.0 | 0.00 | 0.16 | 0.11 | 95 | 1018.1 |
| 20260831075202 | 67 | 360 | 0.0 | 0.0 | 0.01 | 0.16 | 0.11 | 95 | 1018.2 |
| 20260831074202 | 67 | 360 | 0.0 | 0.0 | 0.01 | 0.16 | 0.11 | 95 | 1018.2 |
| 20260831073202 | 67 | 360 | 0.0 | 0.0 | 0.00 | 0.15 | 0.10 | 95 | 1018.3 |
| 20260831072202 | 67 | 360 | 0.0 | 0.0 | 0.00 | 0.15 | 0.10 | 95 | 1018.4 |
| 20260831071203 | 67 | 360 | 0.0 | 0.0 | 0.00 | 0.15 | 0.10 | 95 | 1018.4 |
| 20260831070204 | 67 | 360 | 0.0 | 0.0 | 0.00 | 0.15 | 0.10 | 95 | 1018.4 |
| 20260831065224 | 67 | 360 | 0.0 | 0.0 | 0.06 | 0.14 | 0.09 | 94 | 1018.5 |
| 20260831064203 | 67 | 360 | 0.0 | 0.0 | 0.04 | 0.12 | 0.07 | 94 | 1018.5 |
| 20260831063203 | 67 | 360 | 0.0 | 0.0 | 0.02 | 0.10 | 0.05 | 95 | 1018.6 |
| 20260831062203 | 67 | 360 | 0.0 | 0.0 | 0.02 | 0.10 | 0.05 | 95 | 1018.6 |
| 20260831061202 | 67 | 360 | 0.0 | 0.0 | 0.01 | 0.09 | 0.04 | 95 | 1018.8 |
| 20260831060202 | 67 | 360 | 0.0 | 0.0 | 0.00 | 0.08 | 0.03 | 94 | 1018.9 |
| 20260831055203 | 67 | 360 | 0.0 | 0.0 | 0.00 | 0.07 | 0.02 | 94 | 1018.9 |
| 20260831054202 | 67 | 360 | 0.0 | 0.0 | 0.00 | 0.07 | 0.02 | 94 | 1018.9 |
| 20260831053203 | 67 | 360 | 0.0 | 0.0 | 0.00 | 0.07 | 0.02 | 94 | 1018.7 |
| 20260831052203 | 67 | 360 | 0.0 | 0.0 | 0.00 | 0.07 | 0.02 | 94 | 1018.7 |
| 20260831051202 | 67 | 360 | 0.0 | 0.0 | 0.00 | 0.07 | 0.02 | 94 | 1018.8 |
| 20260831050204 | 67 | 360 | 0.0 | 0.0 | 0.00 | 0.07 | 0.02 | 94 | 1018.8 |
| 20260831045202 | 67 | 360 | 0.0 | 0.0 | 0.02 | 0.07 | 0.02 | 94 | 1018.7 |
| 20260831044203 | 67 | 360 | 0.0 | 0.0 | 0.02 | 0.07 | 0.02 | 94 | 1018.8 |
| 20260831043202 | 67 | 360 | 0.0 | 0.0 | 0.02 | 0.07 | 0.02 | 94 | 1018.9 |
| 20260831042203 | 67 | 360 | 0.0 | 0.0 | 0.01 | 0.06 | 0.01 | 94 | 1018.7 |
| 20260831041202 | 66 | 360 | 0.0 | 0.0 | 0.00 | 0.05 | 0.00 | 94 | 1018.8 |
| 20260831040203 | 66 | 360 | 0.0 | 0.0 | 0.00 | 0.05 | 0.00 | 94 | 1018.9 |
| 20260831035202 | 66 | 360 | 0.0 | 0.0 | 0.00 | 0.05 | 0.05 | 94 | 1018.9 |
| 20260831034203 | 66 | 360 | 0.0 | 0.0 | 0.00 | 0.05 | 0.05 | 94 | 1018.9 |
| 20260831033223 | 66 | 360 | 0.0 | 0.0 | 0.00 | 0.05 | 0.05 | 94 | 1018.9 |
| 20260831031203 | 66 | 360 | 0.0 | 0.0 | 0.00 | 0.05 | 0.05 | 94 | 1018.9 |
| 20260831030203 | 66 | 359 | 0.0 | 0.9 | 0.00 | 0.05 | 0.05 | 94 | 1019.0 |
| 20260831025202 | 66 | 360 | 0.0 | 0.0 | 0.00 | 0.05 | 0.05 | 94 | 1019.1 |
| 20260831024224 | 65 | 360 | 0.0 | 0.0 | 0.00 | 0.05 | 0.05 | 94 | 1019.3 |
| 20260831023202 | 65 | 360 | 0.0 | 0.0 | 0.00 | 0.05 | 0.05 | 94 | 1019.0 |
| 20260831022204 | 65 | 360 | 0.0 | 0.0 | 0.00 | 0.05 | 0.05 | 93 | 1019.0 |
| 20260831021224 | 65 | 360 | 0.0 | 0.0 | 0.00 | 0.05 | 0.05 | 93 | 1019.0 |
| 20260831020203 | 65 | 360 | 0.0 | 0.0 | 0.00 | 0.05 | 0.05 | 93 | 1019.1 |
| 20260831015203 | 65 | 360 | 0.0 | 0.9 | 0.00 | 0.05 | 0.05 | 93 | 1019.1 |
| 20260831014202 | 65 | 360 | 0.0 | 0.0 | 0.00 | 0.05 | 0.05 | 93 | 1019.2 |
| 20260831013202 | 65 | 360 | 0.0 | 0.0 | 0.00 | 0.05 | 0.05 | 93 | 1019.1 |
| 20260831012227 | 65 | 360 | 0.0 | 0.0 | 0.00 | 0.05 | 0.05 | 93 | 1019.2 |
| 20260831011202 | 65 | 360 | 0.0 | 0.0 | 0.00 | 0.05 | 0.05 | 93 | 1019.1 |
| 20260831010225 | 65 | 360 | 0.0 | 0.0 | 0.00 | 0.05 | 0.05 | 93 | 1019.1 |
| 20260831005202 | 65 | 360 | 0.0 | 0.0 | 0.00 | 0.05 | 0.05 | 93 | 1019.0 |
| 20260831004223 | 65 | 360 | 0.0 | 0.0 | 0.00 | 0.05 | 0.05 | 93 | 1018.8 |
| 20260831003203 | 65 | 360 | 0.0 | 0.0 | 0.00 | 0.05 | 0.05 | 93 | 1018.7 |
| 20260831002202 | 65 | 360 | 0.0 | 0.0 | 0.00 | 0.05 | 0.05 | 93 | 1018.6 |
| 20260831001224 | 65 | 360 | 0.0 | 0.0 | 0.00 | 0.05 | 0.05 | 92 | 1018.5 |
| 20260831000204 | 66 | 360 | 0.0 | 0.0 | 0.00 | 0.05 | 0.05 | 92 | 1018.5 |
| 20260830235223 | 66 | 360 | 0.0 | 0.0 | 0.01 | 0.05 | 0.05 | 92 | 1018.6 |
| 20260830234203 | 66 | 360 | 0.0 | 0.0 | 0.01 | 0.05 | 0.05 | 92 | 1018.5 |
| 20260830233202 | 66 | 360 | 0.0 | 0.0 | 0.01 | 0.05 | 0.05 | 92 | 1018.5 |